Time;durP1;ratioP1;P1;durP2;ratioP2;P2;SDS_P1;SDS_P2;PMS_P1;PMS_P2;Temp;Humidity;BMP_temperature;BMP_pressure;BME280_temperature;BME280_humidity;BME280_pressure;Samples;Min_cycle;Max_cycle;Signal;HPM_P1;HPM_P2
2022/06/25 00:01:09;;;;;;;10.90;10.00;;;;;;;17.05;79.67;92719.25;5003108;28;20235;-77
2022/06/25 00:03:35;;;;;;;11.73;10.93;;;;;;;17.30;78.73;92706.00;5002155;28;20196;-77
2022/06/25 00:06:01;;;;;;;9.80;9.20;;;;;;;17.28;78.79;92713.44;5004001;28;20226;-78
2022/06/25 00:08:26;;;;;;;10.83;9.63;;;;;;;17.11;80.18;92708.22;5003099;28;20221;-77
2022/06/25 00:10:52;;;;;;;11.10;10.50;;;;;;;17.04;80.01;92702.66;5001561;28;20219;-78
2022/06/25 00:13:19;;;;;;;10.70;10.00;;;;;;;17.04;80.00;92694.75;5004747;28;20188;-77
2022/06/25 00:15:44;;;;;;;10.70;9.93;;;;;;;17.13;79.72;92689.44;5005105;28;20291;-77
2022/06/25 00:18:11;;;;;;;10.63;10.03;;;;;;;17.00;79.04;92680.66;5006374;28;20250;-77
2022/06/25 00:20:36;;;;;;;11.27;10.30;;;;;;;16.94;79.89;92671.34;5000710;28;20207;-77
2022/06/25 00:23:02;;;;;;;11.13;10.23;;;;;;;16.92;80.27;92675.38;5006224;28;20184;-77
2022/06/25 00:25:28;;;;;;;11.87;11.07;;;;;;;16.75;80.74;92665.66;5001652;28;20211;-77
2022/06/25 00:27:53;;;;;;;10.73;10.13;;;;;;;16.68;82.10;92677.78;5002517;28;20180;-77
2022/06/25 00:30:18;;;;;;;10.80;10.20;;;;;;;16.60;82.09;92657.50;5002072;28;20220;-78
2022/06/25 00:32:44;;;;;;;10.53;9.83;;;;;;;16.74;80.77;92677.31;5007017;28;20180;-77
2022/06/25 00:35:10;;;;;;;10.00;9.40;;;;;;;16.81;80.50;92669.69;5001685;28;20189;-78
2022/06/25 00:37:35;;;;;;;10.47;9.87;;;;;;;16.62;80.20;92642.91;5003749;28;20235;-77
2022/06/25 00:40:01;;;;;;;9.87;9.33;;;;;;;16.72;80.84;92665.50;5004149;28;20243;-77
2022/06/25 00:42:27;;;;;;;10.23;9.63;;;;;;;16.65;81.42;92662.59;5001116;28;20204;-77
2022/06/25 00:44:53;;;;;;;10.93;10.00;;;;;;;16.68;80.85;92659.34;5003156;28;20192;-77
2022/06/25 00:47:19;;;;;;;10.27;9.67;;;;;;;16.65;81.43;92668.66;4999548;28;20211;-77
2022/06/25 00:49:45;;;;;;;10.77;10.07;;;;;;;16.76;81.84;92667.22;5001178;28;20279;-77
2022/06/25 00:52:16;;;;;;;10.97;10.00;;;;;;;16.68;81.37;92656.69;4999928;28;20231;-77
2022/06/25 00:55:09;;;;;;;11.23;10.17;;;;;;;16.74;81.69;92650.94;5001173;28;20183;-77
2022/06/25 00:57:38;;;;;;;11.17;10.47;;;;;;;16.60;81.26;92639.03;4996768;28;20228;-77
2022/06/25 01:00:12;;;;;;;10.40;9.70;;;;;;;16.80;80.85;92662.09;5004334;28;20188;-77
2022/06/25 01:02:40;;;;;;;11.50;10.63;;;;;;;16.83;80.80;92670.16;5003519;28;20219;-77
2022/06/25 01:05:07;;;;;;;10.53;9.73;;;;;;;16.84;80.33;92665.66;4998606;28;20196;-74
2022/06/25 01:07:35;;;;;;;11.10;10.37;;;;;;;16.72;79.61;92661.03;5000278;28;20228;-74
2022/06/25 01:10:01;;;;;;;10.83;9.90;;;;;;;17.03;78.99;92668.69;4997872;28;20184;-78
2022/06/25 01:12:27;;;;;;;11.40;10.57;;;;;;;16.97;79.20;92669.94;5001650;28;20232;-73
2022/06/25 01:15:03;;;;;;;10.57;9.70;;;;;;;17.02;79.40;92678.47;5000766;28;20202;-72
2022/06/25 01:17:29;;;;;;;10.90;10.27;;;;;;;16.93;78.78;92677.72;5004272;28;20299;-73
2022/06/25 01:19:54;;;;;;;11.63;10.93;;;;;;;17.09;77.87;92678.75;5000981;28;20700;-73
2022/06/25 01:22:19;;;;;;;11.10;10.30;;;;;;;17.27;77.31;92695.28;5001349;28;20219;-73
2022/06/25 01:24:45;;;;;;;10.87;10.17;;;;;;;17.22;77.83;92683.06;5000282;28;20195;-75
2022/06/25 01:27:16;;;;;;;10.57;9.97;;;;;;;17.21;78.10;92668.28;5001572;28;20288;-74
2022/06/25 01:29:42;;;;;;;11.10;10.27;;;;;;;17.31;78.93;92686.41;5002744;28;20195;-73
2022/06/25 01:32:08;;;;;;;10.27;9.60;;;;;;;17.37;78.46;92685.16;5004054;28;20230;-75
2022/06/25 01:34:33;;;;;;;13.37;10.13;;;;;;;17.43;78.04;92683.88;5000348;28;20221;-75
2022/06/25 01:36:59;;;;;;;11.37;10.57;;;;;;;17.45;78.49;92680.94;5002657;28;20220;-78
2022/06/25 01:39:24;;;;;;;10.77;10.00;;;;;;;17.46;78.90;92674.59;5005009;28;20247;-80
2022/06/25 01:41:49;;;;;;;11.13;10.23;;;;;;;17.42;79.55;92676.28;5001055;28;20231;-79
2022/06/25 01:44:15;;;;;;;10.57;9.87;;;;;;;17.41;80.63;92669.47;5000864;28;20188;-79
2022/06/25 01:46:40;;;;;;;11.30;10.60;;;;;;;17.48;80.29;92675.03;5000791;28;20223;-79
2022/06/25 01:49:06;;;;;;;10.57;9.97;;;;;;;17.43;80.10;92651.44;4999936;28;20195;-79
2022/06/25 01:51:31;;;;;;;10.60;9.87;;;;;;;17.37;81.04;92666.69;4999876;28;20246;-79
2022/06/25 01:53:57;;;;;;;10.80;10.07;;;;;;;16.97;81.73;92638.28;5001340;28;20184;-79
2022/06/25 01:56:22;;;;;;;10.90;10.10;;;;;;;17.10;82.27;92674.25;5000523;28;20211;-79
2022/06/25 01:58:47;;;;;;;11.57;10.87;;;;;;;17.20;81.80;92690.50;5001748;28;20322;-79
2022/06/25 02:01:13;;;;;;;11.50;10.77;;;;;;;17.04;81.86;92673.63;4999900;28;20243;-80
2022/06/25 02:03:38;;;;;;;12.00;10.97;;;;;;;16.86;82.65;92666.09;5001069;28;20195;-79
2022/06/25 02:06:04;;;;;;;10.60;9.80;;;;;;;16.81;82.97;92655.75;4982864;28;20264;-79
2022/06/25 02:08:33;;;;;;;10.40;9.40;;;;;;;17.01;83.48;92695.38;5002877;28;20205;-79
2022/06/25 02:11:00;;;;;;;10.80;9.90;;;;;;;16.90;83.97;92682.84;5001436;28;20247;-79
2022/06/25 02:13:26;;;;;;;10.70;10.10;;;;;;;17.09;83.31;92699.84;5001987;28;20222;-79
2022/06/25 02:15:52;;;;;;;11.27;10.57;;;;;;;17.06;82.99;92692.56;5001602;28;20310;-79
2022/06/25 02:18:18;;;;;;;11.47;10.77;;;;;;;17.11;82.59;92687.13;4997973;28;20208;-79
2022/06/25 02:20:44;;;;;;;12.27;11.17;;;;;;;17.20;83.38;92711.63;4999552;28;20254;-79
2022/06/25 02:23:11;;;;;;;11.43;10.60;;;;;;;17.21;83.02;92704.47;5000994;28;20183;-80
2022/06/25 02:25:36;;;;;;;10.97;10.17;;;;;;;17.08;83.44;92689.63;5000442;28;20272;-79
2022/06/25 02:28:02;;;;;;;10.97;10.07;;;;;;;17.17;83.55;92696.41;5002784;28;20610;-79
2022/06/25 02:30:28;;;;;;;12.17;10.93;;;;;;;17.28;83.12;92684.41;5004099;28;21180;-79
2022/06/25 02:32:54;;;;;;;11.57;10.70;;;;;;;17.30;83.21;92689.38;5007428;28;20275;-78
2022/06/25 02:35:19;;;;;;;10.90;10.13;;;;;;;17.22;82.73;92675.13;5002258;28;20197;-78
2022/06/25 02:37:44;;;;;;;10.70;9.83;;;;;;;17.30;83.80;92700.72;5002666;28;20233;-79
2022/06/25 02:40:11;;;;;;;10.87;10.23;;;;;;;17.13;83.70;92669.13;5004679;28;20221;-79
2022/06/25 02:42:38;;;;;;;11.37;10.57;;;;;;;17.04;85.61;92697.38;5002630;28;20239;-78
2022/06/25 02:45:04;;;;;;;11.73;10.83;;;;;;;16.93;84.55;92675.09;5005578;28;20190;-79
2022/06/25 02:47:30;;;;;;;11.43;10.63;;;;;;;17.37;82.81;92732.66;5003889;28;20237;-79
2022/06/25 02:49:56;;;;;;;12.93;11.80;;;;;;;17.22;82.75;92741.09;5003463;28;20200;-79
2022/06/25 02:52:21;;;;;;;12.67;11.63;;;;;;;17.41;82.66;92733.59;5003253;28;20277;-79
2022/06/25 02:54:47;;;;;;;12.37;11.37;;;;;;;17.24;83.15;92699.34;5005545;28;20278;-79
2022/06/25 02:59:56;;;;;;;11.87;10.97;;;;;;;17.58;82.88;92716.91;5003277;28;20218;-78
2022/06/25 03:02:21;;;;;;;11.90;10.93;;;;;;;17.66;82.52;92712.69;5004048;28;20224;-79
2022/06/25 03:04:47;;;;;;;11.57;10.77;;;;;;;17.74;82.40;92710.00;5005591;28;20187;-78
2022/06/25 03:07:12;;;;;;;12.37;11.37;;;;;;;17.83;81.93;92702.81;5004202;28;20250;-78
2022/06/25 03:09:38;;;;;;;12.33;11.23;;;;;;;17.74;81.73;92696.81;5001027;28;20191;-78
2022/06/25 03:12:04;;;;;;;11.93;11.13;;;;;;;17.98;81.64;92698.84;5003318;28;20233;-79
2022/06/25 03:14:29;;;;;;;10.30;9.60;;;;;;;18.36;79.99;92710.06;5002625;28;20176;-78
2022/06/25 03:16:54;;;;;;;11.30;10.60;;;;;;;18.64;78.03;92716.38;5007680;28;20243;-79
2022/06/25 03:19:20;;;;;;;11.30;10.40;;;;;;;18.71;76.88;92674.28;5003189;28;20314;-79
2022/06/25 03:21:46;;;;;;;11.67;10.83;;;;;;;19.27;75.45;92699.25;5003355;28;20283;-79
2022/06/25 03:24:11;;;;;;;12.03;11.07;;;;;;;19.61;74.10;92707.56;5001956;28;20215;-79
2022/06/25 03:26:37;;;;;;;12.07;10.97;;;;;;;19.77;73.49;92716.41;5002005;28;20227;-79
2022/06/25 03:29:03;;;;;;;11.00;10.30;;;;;;;19.89;73.44;92712.97;5003103;28;20214;-79
2022/06/25 03:31:29;;;;;;;11.50;10.70;;;;;;;19.62;74.29;92724.22;5001301;28;20223;-79
2022/06/25 03:33:54;;;;;;;11.23;10.43;;;;;;;19.55;73.55;92731.97;5001802;28;20185;-78
2022/06/25 03:36:20;;;;;;;12.40;11.30;;;;;;;19.40;74.15;92722.00;5001792;28;20218;-78
2022/06/25 03:38:45;;;;;;;11.30;10.37;;;;;;;19.02;76.89;92717.72;5001255;28;20221;-79
2022/06/25 03:44:10;;;;;;;12.27;11.37;;;;;;;19.60;74.70;92695.44;4996381;28;20205;-79
2022/06/25 03:46:37;;;;;;;11.67;10.77;;;;;;;19.91;73.47;92716.84;5003212;28;20702;-79
2022/06/25 03:49:04;;;;;;;11.80;10.90;;;;;;;19.79;74.31;92697.53;5001778;28;20225;-79
2022/06/25 03:51:30;;;;;;;12.27;11.07;;;;;;;19.70;74.30;92684.41;4999653;28;20244;-78
2022/06/25 03:53:55;;;;;;;11.07;10.33;;;;;;;19.60;76.03;92706.03;5004368;28;20211;-79
2022/06/25 03:56:21;;;;;;;11.30;10.50;;;;;;;19.30;76.83;92709.97;5000325;28;20241;-79
2022/06/25 03:58:47;;;;;;;11.37;10.50;;;;;;;19.21;78.45;92711.16;5001932;28;20225;-78
2022/06/25 04:01:13;;;;;;;11.60;10.87;;;;;;;19.01;77.69;92702.16;5000022;28;20222;-78
2022/06/25 04:03:40;;;;;;;12.17;11.10;;;;;;;18.52;79.47;92714.44;5001626;28;20185;-77
2022/06/25 04:06:06;;;;;;;12.77;11.87;;;;;;;18.55;82.02;92713.78;5000727;28;20231;-78
2022/06/25 04:08:32;;;;;;;11.33;10.43;;;;;;;18.85;81.35;92701.22;5002851;28;20219;-79
2022/06/25 04:10:57;;;;;;;11.77;10.83;;;;;;;18.72;81.57;92670.56;5002497;28;20240;-79
2022/06/25 04:13:23;;;;;;;11.60;10.70;;;;;;;18.64;82.98;92690.72;5004033;28;20202;-79
2022/06/25 04:15:48;;;;;;;12.17;11.37;;;;;;;18.84;81.16;92694.41;4998802;28;20243;-79
2022/06/25 04:18:14;;;;;;;11.40;10.50;;;;;;;18.92;81.23;92706.78;5004423;28;20216;-78
2022/06/25 04:20:39;;;;;;;11.20;10.40;;;;;;;19.08;79.61;92707.72;5000333;28;20395;-70
2022/06/25 04:23:05;;;;;;;11.00;10.30;;;;;;;18.97;79.31;92703.94;5001535;28;20177;-70
2022/06/25 04:25:30;;;;;;;11.10;10.40;;;;;;;18.78;80.66;92690.41;5003491;28;20220;-71
2022/06/25 04:30:40;;;;;;;11.47;10.70;;;;;;;19.25;78.81;92706.75;5002392;28;20259;-71
2022/06/25 04:33:05;;;;;;;11.53;10.40;;;;;;;19.32;77.02;92709.63;5001086;28;20184;-69
2022/06/25 04:35:31;;;;;;;11.97;11.07;;;;;;;19.52;76.41;92728.09;5001029;28;20202;-70
2022/06/25 04:37:56;;;;;;;11.43;10.63;;;;;;;19.77;75.80;92732.28;4999235;28;20214;-73
2022/06/25 04:40:22;;;;;;;15.23;12.27;;;;;;;19.97;74.26;92718.16;5002243;28;20177;-73
2022/06/25 04:42:47;;;;;;;13.50;12.43;;;;;;;20.06;75.00;92718.78;5001737;28;20194;-69
2022/06/25 04:45:13;;;;;;;12.37;11.30;;;;;;;19.94;76.57;92725.97;5002002;28;20205;-73
2022/06/25 04:47:38;;;;;;;12.33;11.30;;;;;;;20.13;76.54;92742.91;5001178;28;21305;-73
2022/06/25 04:50:07;;;;;;;12.97;11.87;;;;;;;20.07;75.09;92730.97;4999882;28;20206;-71
2022/06/25 04:52:33;;;;;;;13.70;12.57;;;;;;;20.09;74.85;92749.97;4999676;28;20229;-74
2022/06/25 04:54:59;;;;;;;14.80;13.10;;;;;;;20.23;74.86;92739.78;5000760;28;20198;-71
2022/06/25 04:57:25;;;;;;;14.20;13.05;;;;;;;20.66;73.60;92736.50;5002595;28;20225;-70
2022/06/25 04:59:50;;;;;;;12.57;11.33;;;;;;;21.38;70.07;92749.47;4999055;28;20214;-71
2022/06/25 05:02:15;;;;;;;13.70;12.50;;;;;;;21.66;68.32;92744.09;4999939;28;20225;-72
2022/06/25 05:04:41;;;;;;;13.90;12.77;;;;;;;21.88;65.16;92746.19;5003068;28;21054;-71
2022/06/25 05:07:06;;;;;;;12.90;11.75;;;;;;;21.00;69.17;92751.09;5002697;28;20226;-71
2022/06/25 05:09:32;;;;;;;13.68;12.55;;;;;;;21.24;67.60;92743.03;5002303;28;20218;-72
2022/06/25 05:11:58;;;;;;;14.13;12.63;;;;;;;21.68;66.95;92747.19;5001365;28;20239;-71
2022/06/25 05:14:23;;;;;;;17.45;12.13;;;;;;;23.24;62.59;92753.66;4999191;28;20208;-72
2022/06/25 05:16:49;;;;;;;14.38;12.85;;;;;;;26.21;51.27;92746.66;5002160;28;20228;-75
2022/06/25 05:19:14;;;;;;;12.48;11.48;;;;;;;28.30;45.77;92760.50;5002959;28;20222;-74
2022/06/25 05:21:39;;;;;;;13.23;12.07;;;;;;;28.22;44.81;92749.75;4999947;28;20232;-73
2022/06/25 05:24:06;;;;;;;12.45;11.35;;;;;;;25.66;52.53;92753.78;5000776;28;20187;-72
2022/06/25 05:26:32;;;;;;;12.00;10.75;;;;;;;25.19;53.73;92767.00;5002035;28;20233;-71
2022/06/25 05:28:57;;;;;;;13.05;11.85;;;;;;;24.23;56.22;92726.03;5003183;28;20194;-74
2022/06/25 05:31:22;;;;;;;14.00;12.68;;;;;;;24.15;57.71;92751.06;5000892;28;20225;-74
2022/06/25 05:33:49;;;;;;;12.82;11.65;;;;;;;23.47;59.84;92746.50;5002907;28;20191;-70
2022/06/25 05:36:14;;;;;;;12.82;11.68;;;;;;;24.08;58.00;92750.97;5003449;28;20228;-72
2022/06/25 05:38:40;;;;;;;13.65;12.40;;;;;;;26.09;52.18;92758.41;5003495;28;20267;-69
2022/06/25 05:41:08;;;;;;;13.57;12.27;;;;;;;29.90;41.68;92746.94;4989747;28;20227;-71
2022/06/25 05:43:34;;;;;;;11.25;10.40;;;;;;;32.25;37.74;92783.00;5005094;28;20188;-71
2022/06/25 05:45:59;;;;;;;12.48;11.35;;;;;;;32.34;35.94;92791.38;5003323;28;20259;-73
2022/06/25 05:48:25;;;;;;;12.60;11.32;;;;;;;31.78;36.57;92796.78;5002289;28;20203;-70
2022/06/25 05:50:50;;;;;;;12.48;11.23;;;;;;;33.83;33.98;92784.84;5003678;28;20233;-75
2022/06/25 05:53:15;;;;;;;16.83;12.15;;;;;;;34.05;32.92;92775.09;5001187;28;20199;-78
2022/06/25 05:55:41;;;;;;;12.40;11.32;;;;;;;34.60;32.58;92794.00;5000471;28;20224;-77
2022/06/25 05:58:06;;;;;;;13.98;11.82;;;;;;;33.94;33.40;92812.50;5001553;28;20279;-78
2022/06/25 06:00:32;;;;;;;15.73;11.00;;;;;;;35.15;30.91;92803.88;5002030;28;20191;-77
2022/06/25 06:02:57;;;;;;;12.27;11.07;;;;;;;36.48;28.72;92818.41;5003972;28;20202;-77
2022/06/25 06:05:22;;;;;;;16.60;11.20;;;;;;;33.70;32.09;92787.44;5005359;28;20204;-78
2022/06/25 06:07:48;;;;;;;12.40;10.65;;;;;;;36.10;29.39;92776.78;5007555;28;20219;-77
2022/06/25 06:10:15;;;;;;;11.55;10.65;;;;;;;37.39;28.05;92798.34;5006801;28;20202;-77
2022/06/25 06:12:40;;;;;;;12.65;11.45;;;;;;;34.65;31.23;92771.75;5003013;28;20279;-77
2022/06/25 06:15:06;;;;;;;11.77;10.65;;;;;;;36.12;29.43;92813.25;5004664;28;20192;-77
2022/06/25 06:17:32;;;;;;;12.85;11.57;;;;;;;35.90;29.68;92806.13;5002815;28;20219;-78
2022/06/25 06:19:57;;;;;;;12.20;11.10;;;;;;;35.94;28.67;92777.63;5007480;28;20203;-77
2022/06/25 06:22:22;;;;;;;11.13;10.20;;;;;;;36.97;27.90;92787.66;5005930;28;20255;-77
2022/06/25 06:24:48;;;;;;;13.63;10.63;;;;;;;37.28;26.49;92797.94;5003120;28;20267;-77
2022/06/25 06:27:13;;;;;;;10.75;9.93;;;;;;;36.26;28.55;92780.19;5005805;28;20246;-78
2022/06/25 06:29:39;;;;;;;12.07;10.85;;;;;;;33.80;31.95;92796.53;5002789;28;20214;-78
2022/06/25 06:32:05;;;;;;;11.32;10.43;;;;;;;34.71;30.56;92783.63;5004465;28;20215;-78
2022/06/25 06:34:30;;;;;;;11.77;10.73;;;;;;;33.67;33.01;92788.28;5002487;28;20195;-78
2022/06/25 06:36:56;;;;;;;11.43;10.38;;;;;;;36.15;29.37;92798.78;5002539;28;20239;-78
2022/06/25 06:39:21;;;;;;;11.25;9.98;;;;;;;37.56;26.03;92800.41;5004783;28;20282;-78
2022/06/25 06:41:46;;;;;;;10.43;9.50;;;;;;;34.47;31.14;92801.28;5004597;28;20257;-78
2022/06/25 06:44:13;;;;;;;11.48;10.50;;;;;;;36.25;28.34;92810.53;5004011;28;20847;-77
2022/06/25 06:46:38;;;;;;;11.02;10.02;;;;;;;33.93;32.30;92794.75;5002633;28;20242;-78
2022/06/25 06:49:04;;;;;;;9.77;9.00;;;;;;;35.26;29.57;92799.69;5003065;28;20195;-77
2022/06/25 06:51:29;;;;;;;11.52;10.30;;;;;;;35.28;29.50;92782.97;5002361;28;20234;-78
2022/06/25 06:53:54;;;;;;;10.27;9.38;;;;;;;34.09;30.70;92759.50;5005132;28;20208;-78
2022/06/25 06:56:20;;;;;;;12.85;10.18;;;;;;;30.89;36.52;92785.44;5001399;28;20267;-77
2022/06/25 06:58:46;;;;;;;11.13;10.15;;;;;;;27.37;45.48;92761.47;5000778;28;20253;-78
2022/06/25 07:01:11;;;;;;;11.55;10.20;;;;;;;27.57;45.13;92778.00;5001419;28;20228;-77
2022/06/25 07:03:37;;;;;;;11.13;10.23;;;;;;;27.18;46.30;92777.06;5005555;28;20208;-77
2022/06/25 07:06:02;;;;;;;11.95;10.98;;;;;;;25.80;49.24;92739.78;4984575;28;20288;-78
2022/06/25 07:08:28;;;;;;;12.52;11.43;;;;;;;24.62;52.41;92744.13;5006720;28;20251;-77
2022/06/25 07:10:53;;;;;;;19.13;13.50;;;;;;;24.32;55.71;92755.91;5004275;28;20230;-77
2022/06/25 07:13:18;;;;;;;12.55;11.48;;;;;;;25.26;53.12;92770.53;5000838;28;20196;-77
2022/06/25 07:15:44;;;;;;;12.90;11.77;;;;;;;25.50;51.57;92766.63;5003683;28;20231;-77
2022/06/25 07:18:09;;;;;;;13.43;12.18;;;;;;;25.04;53.59;92765.31;5002992;28;20222;-77
2022/06/25 07:20:35;;;;;;;12.68;11.65;;;;;;;24.89;52.92;92734.97;5002518;28;20192;-76
2022/06/25 07:23:00;;;;;;;12.38;11.27;;;;;;;24.67;52.49;92738.50;5004641;28;20170;-76
2022/06/25 07:25:26;;;;;;;12.75;11.68;;;;;;;24.73;53.91;92738.97;5004787;28;20222;-77
2022/06/25 07:27:51;;;;;;;19.88;11.90;;;;;;;24.62;54.54;92756.72;5004248;28;20183;-77
2022/06/25 07:30:17;;;;;;;12.80;11.63;;;;;;;24.39;56.09;92761.34;5003064;28;20205;-77
2022/06/25 07:32:42;;;;;;;12.65;11.63;;;;;;;24.60;56.53;92761.63;5004359;28;20227;-77
2022/06/25 07:35:08;;;;;;;12.48;11.25;;;;;;;24.77;55.34;92769.16;5004569;28;20186;-78
2022/06/25 07:37:34;;;;;;;12.05;10.82;;;;;;;25.02;53.29;92763.00;5002334;28;20242;-77
2022/06/25 07:40:00;;;;;;;11.75;10.70;;;;;;;24.28;55.18;92757.75;5004809;28;20175;-77
2022/06/25 07:42:26;;;;;;;13.77;11.90;;;;;;;24.65;54.96;92751.44;5004882;28;20221;-77
2022/06/25 07:44:52;;;;;;;13.07;11.88;;;;;;;24.36;55.44;92772.75;5004104;28;20199;-77
2022/06/25 07:47:18;;;;;;;14.05;12.65;;;;;;;24.05;58.24;92783.72;5002499;28;20329;-77
2022/06/25 07:52:28;;;;;;;19.90;12.65;;;;;;;24.77;55.67;92769.94;5000957;28;20245;-76
2022/06/25 07:54:53;;;;;;;14.23;12.93;;;;;;;24.86;53.78;92766.97;5003978;28;20190;-77
2022/06/25 07:57:18;;;;;;;15.05;12.32;;;;;;;24.73;58.20;92766.44;5004541;28;20233;-77
2022/06/25 07:59:44;;;;;;;14.02;12.82;;;;;;;25.46;55.11;92773.84;5002603;28;20261;-75
2022/06/25 08:02:09;;;;;;;12.90;11.90;;;;;;;25.71;53.66;92766.84;5000847;28;20210;-75
2022/06/25 08:04:35;;;;;;;13.60;12.40;;;;;;;25.68;53.98;92769.47;5002407;28;20180;-75
2022/06/25 08:07:00;;;;;;;13.00;12.00;;;;;;;25.72;53.63;92773.72;5000859;28;20254;-74
2022/06/25 08:09:26;;;;;;;14.35;12.25;;;;;;;25.42;55.71;92785.63;5002312;28;20206;-76
2022/06/25 08:11:51;;;;;;;12.98;11.88;;;;;;;25.50;52.87;92773.84;5002723;28;20218;-74
2022/06/25 08:14:17;;;;;;;14.60;12.23;;;;;;;25.27;53.63;92790.00;5003322;28;20187;-75
2022/06/25 08:16:42;;;;;;;14.05;12.60;;;;;;;25.26;52.58;92772.44;5003263;28;20221;-74
2022/06/25 08:19:07;;;;;;;12.85;11.60;;;;;;;25.25;55.87;92784.25;5004341;28;20247;-74
2022/06/25 08:21:33;;;;;;;14.02;12.73;;;;;;;25.28;53.30;92773.59;5000150;28;20249;-75
2022/06/25 08:23:58;;;;;;;12.63;11.45;;;;;;;24.97;57.45;92773.22;5001167;28;20190;-74
2022/06/25 08:26:23;;;;;;;16.20;12.13;;;;;;;25.32;53.42;92775.56;5002785;28;20242;-74
2022/06/25 08:28:49;;;;;;;12.75;11.48;;;;;;;25.22;53.77;92774.28;4998816;28;20215;-74
2022/06/25 08:31:15;;;;;;;13.35;12.25;;;;;;;24.76;56.73;92772.97;5000474;28;20253;-74
2022/06/25 08:33:41;;;;;;;13.85;12.63;;;;;;;25.24;53.72;92758.66;5005098;28;20254;-72
2022/06/25 08:36:07;;;;;;;13.85;12.75;;;;;;;25.61;54.02;92780.09;5000122;28;20233;-73
2022/06/25 08:38:32;;;;;;;14.05;12.68;;;;;;;25.27;56.70;92773.97;4999668;28;20246;-73
2022/06/25 08:40:59;;;;;;;13.30;11.93;;;;;;;25.11;56.06;92766.16;4998551;28;20234;-74
2022/06/25 08:43:25;;;;;;;13.07;11.77;;;;;;;25.30;54.75;92778.59;5001529;28;20300;-74
2022/06/25 08:45:51;;;;;;;12.10;10.90;;;;;;;25.69;52.80;92779.81;5000723;28;20250;-74
2022/06/25 08:48:24;;;;;;;12.35;11.27;;;;;;;25.85;54.19;92779.56;5002528;28;20195;-73
2022/06/25 08:50:51;;;;;;;13.35;12.10;;;;;;;25.56;54.46;92781.19;5002726;28;20322;-74
2022/06/25 08:53:18;;;;;;;13.45;12.40;;;;;;;25.64;55.40;92785.47;5000911;28;20255;-75
2022/06/25 08:55:45;;;;;;;13.45;12.27;;;;;;;25.99;53.26;92788.53;5002794;28;20245;-75
2022/06/25 08:58:12;;;;;;;19.85;13.52;;;;;;;25.24;54.11;92746.09;5002974;28;20210;-73
2022/06/25 09:00:41;;;;;;;14.90;13.52;;;;;;;25.21;56.01;92772.75;4999269;28;20286;-73
2022/06/25 09:03:08;;;;;;;12.57;11.32;;;;;;;25.73;52.78;92774.50;5001587;28;20192;-71
2022/06/25 09:05:36;;;;;;;14.02;12.75;;;;;;;25.64;56.26;92788.16;5004310;28;20309;-72
2022/06/25 09:08:05;;;;;;;16.48;11.45;;;;;;;25.85;55.61;92799.06;5004444;28;20282;-74
2022/06/25 09:10:31;;;;;;;15.43;12.95;;;;;;;26.10;53.27;92799.31;5002706;28;20247;-73
2022/06/25 09:12:59;;;;;;;14.63;12.70;;;;;;;26.43;52.21;92802.66;5004098;28;20184;-72
2022/06/25 09:15:30;;;;;;;14.55;12.88;;;;;;;26.34;52.14;92799.53;5000774;28;20202;-72
2022/06/25 09:17:56;;;;;;;12.65;11.63;;;;;;;26.49;53.33;92806.50;5001126;28;20207;-72
2022/06/25 09:20:22;;;;;;;15.27;12.77;;;;;;;26.41;52.82;92788.84;5000485;28;20192;-73
2022/06/25 09:22:55;;;;;;;14.15;12.30;;;;;;;26.41;55.28;92798.81;5004607;28;20170;-72
2022/06/25 09:25:28;;;;;;;14.95;13.35;;;;;;;26.72;52.53;92798.28;5002880;28;20192;-73
2022/06/25 09:27:54;;;;;;;13.88;12.13;;;;;;;26.39;53.87;92796.50;5001316;28;20182;-71
2022/06/25 09:30:20;;;;;;;14.35;13.05;;;;;;;26.72;52.36;92801.72;4997245;28;20196;-73
2022/06/25 09:33:00;;;;;;;16.70;13.90;;;;;;;26.04;52.69;92757.97;5000015;28;20187;-73
2022/06/25 09:35:36;;;;;;;13.98;12.63;;;;;;;26.59;52.89;92803.16;5003283;28;20185;-71
2022/06/25 09:38:14;;;;;;;13.50;12.25;;;;;;;26.43;55.18;92797.28;5000676;28;20195;-72
2022/06/25 09:40:50;;;;;;;12.98;11.77;;;;;;;26.73;51.86;92799.81;4997643;28;20286;-73
2022/06/25 09:43:21;;;;;;;13.32;12.02;;;;;;;27.11;52.92;92787.78;5001236;28;20184;-73
2022/06/25 09:45:53;;;;;;;14.43;12.98;;;;;;;27.38;50.90;92797.13;4984625;28;20585;-73
2022/06/25 09:48:26;;;;;;;12.90;11.70;;;;;;;27.24;49.97;92791.66;5002363;28;20199;-74
2022/06/25 09:51:13;;;;;;;14.52;12.90;;;;;;;26.72;50.78;92782.22;5000152;28;20287;-73
2022/06/25 09:53:46;;;;;;;13.68;12.52;;;;;;;27.36;49.80;92784.09;5000957;28;20181;-73
2022/06/25 09:56:14;;;;;;;14.32;12.93;;;;;;;27.30;50.04;92779.47;5000885;28;20223;-73
2022/06/25 09:58:41;;;;;;;15.02;13.07;;;;;;;27.75;46.63;92774.22;4999780;28;20219;-73
2022/06/25 10:01:07;;;;;;;14.20;12.85;;;;;;;27.86;48.23;92768.88;4979722;28;20242;-72
2022/06/25 10:03:35;;;;;;;16.05;14.50;;;;;;;27.62;49.47;92774.94;4982795;28;20184;-72
2022/06/25 10:06:01;;;;;;;13.65;12.30;;;;;;;27.16;48.86;92784.75;4982548;28;20234;-73
2022/06/25 10:08:29;;;;;;;14.20;12.77;;;;;;;27.53;49.28;92769.19;4982638;28;20180;-73
2022/06/25 10:10:55;;;;;;;15.07;12.85;;;;;;;27.58;48.76;92776.88;4993851;28;20239;-73
2022/06/25 10:13:22;;;;;;;14.25;13.05;;;;;;;27.32;48.80;92777.94;4980190;28;21047;-74
2022/06/25 10:15:48;;;;;;;14.48;13.13;;;;;;;27.37;49.85;92782.16;4981974;28;20228;-73
2022/06/25 10:18:14;;;;;;;13.18;11.95;;;;;;;27.21;48.92;92787.81;4980525;28;20225;-73
2022/06/25 10:20:43;;;;;;;13.98;12.57;;;;;;;26.99;48.40;92767.41;4981410;28;20232;-73
2022/06/25 10:23:10;;;;;;;13.75;12.40;;;;;;;27.25;49.66;92774.44;4979583;28;20928;-73
2022/06/25 10:25:36;;;;;;;13.15;11.75;;;;;;;27.34;48.99;92772.97;4980613;28;20271;-73
2022/06/25 10:28:26;;;;;;;13.55;11.90;;;;;;;27.63;48.42;92779.94;4980251;28;20219;-73
2022/06/25 10:30:54;;;;;;;13.45;10.63;;;;;;;27.74;46.85;92761.16;4973339;28;20236;-72
2022/06/25 10:33:28;;;;;;;12.00;10.95;;;;;;;27.67;47.73;92755.81;4978464;28;20193;-73
2022/06/25 10:35:58;;;;;;;11.38;10.25;;;;;;;27.33;48.15;92741.91;4987156;28;20238;-73
2022/06/25 10:38:26;;;;;;;11.90;10.90;;;;;;;27.54;48.90;92757.31;4983761;28;20228;-74
2022/06/25 10:43:46;;;;;;;11.65;10.57;;;;;;;27.19;46.78;92738.41;4984355;28;20188;-74
2022/06/25 10:46:29;;;;;;;11.27;10.18;;;;;;;27.40;47.27;92741.16;4983054;28;20228;-73
2022/06/25 10:49:10;;;;;;;11.20;10.05;;;;;;;27.40;47.94;92749.22;4984091;28;20220;-74
2022/06/25 10:51:38;;;;;;;13.65;11.18;;;;;;;27.61;48.23;92751.97;4983955;28;20239;-73
2022/06/25 10:54:06;;;;;;;11.57;10.07;;;;;;;27.53;46.71;92753.09;4983578;28;20239;-72
2022/06/25 10:56:45;;;;;;;11.43;10.32;;;;;;;27.44;46.93;92736.59;4984892;28;20231;-73
2022/06/25 10:59:34;;;;;;;13.73;10.07;;;;;;;27.80;46.66;92744.31;4983137;28;20239;-74
2022/06/25 11:02:07;;;;;;;13.15;10.25;;;;;;;27.60;46.03;92750.41;4981740;28;20229;-73
2022/06/25 11:04:34;;;;;;;11.07;10.05;;;;;;;27.90;45.48;92748.19;4984919;28;20195;-73
2022/06/25 11:07:09;;;;;;;9.85;9.05;;;;;;;27.44;46.49;92752.69;4984068;28;20296;-74
2022/06/25 11:09:35;;;;;;;11.35;9.60;;;;;;;27.40;46.19;92744.63;4981798;28;20219;-74
2022/06/25 11:12:01;;;;;;;11.90;9.80;;;;;;;27.51;46.49;92739.28;4984045;28;20228;-74
2022/06/25 11:14:26;;;;;;;12.18;9.82;;;;;;;27.53;47.56;92727.03;4985324;28;20223;-74
2022/06/25 11:16:53;;;;;;;11.93;9.95;;;;;;;27.96;46.17;92731.34;4985088;28;20225;-75
2022/06/25 11:19:20;;;;;;;11.27;10.45;;;;;;;28.14;46.81;92728.66;4982565;28;20263;-72
2022/06/25 11:21:47;;;;;;;10.65;9.48;;;;;;;28.35;45.66;92735.91;4983564;28;20232;-74
2022/06/25 11:24:24;;;;;;;15.55;10.75;;;;;;;28.36;45.95;92724.78;4984896;28;20188;-74
2022/06/25 11:29:51;;;;;;;11.77;10.73;;;;;;;28.06;45.83;92703.72;4985095;28;20223;-72
2022/06/25 11:32:21;;;;;;;11.40;10.32;;;;;;;27.56;47.47;92717.47;4998556;28;20231;-71
2022/06/25 11:34:58;;;;;;;15.95;10.70;;;;;;;27.63;47.63;92704.03;5002624;28;20203;-72